Terminal Aerodrome Forecast
Issued by NWS

Home | Current Version | Previous Version | Text Only | Print | Product List | Glossary On
Versions: 1 2 3 4 5 6 7 8 9 10 11 12 13 14
000
FTUS46 KPQR 230520
TAFONP
TAF
KONP 230520Z 2306/2406 20005KT P6SM SCT025 BKN045
     FM230900 16005KT P6SM SCT025 BKN035
     FM231700 16010KT P6SM SCT030 BKN060
     FM232100 16015G25KT P6SM -RA SCT025 OVC035
     FM232300 17018G28KT 5SM -RA SCT008 BKN015 OVC025=

USA.gov is the U.S. government's official web portal to all federal, state and local government web resources and services.